createdAt,value
2022-11-25T00:00:22.598Z,5.02
2022-11-25T00:05:26.742Z,5.02
2022-11-25T00:10:30.947Z,5.04
2022-11-25T00:15:35.214Z,5.07
2022-11-25T00:20:39.213Z,5.08
2022-11-25T00:25:43.490Z,5.07
2022-11-25T00:30:46.297Z,5.11
2022-11-25T00:35:49.333Z,5.14
2022-11-25T00:41:16.097Z,5.18
2022-11-25T00:46:19.074Z,5.18
2022-11-25T00:51:22.077Z,5.09
2022-11-25T00:56:26.294Z,5.04
2022-11-25T01:01:29.364Z,5.04
2022-11-25T01:06:32.527Z,5.07
2022-11-25T01:11:36.903Z,5.03
2022-11-25T01:16:39.874Z,4.91
2022-11-25T01:21:43.023Z,4.80
2022-11-25T01:26:47.819Z,4.80
2022-11-25T01:31:51.712Z,4.77
2022-11-25T01:36:54.601Z,4.79
2022-11-25T01:41:59.372Z,4.76
2022-11-25T01:47:06.920Z,4.72
2022-11-25T01:52:17.119Z,4.71
2022-11-25T01:57:27.898Z,4.74
2022-11-25T02:02:32.542Z,4.69
2022-11-25T02:07:37.757Z,4.72
2022-11-25T02:12:45.572Z,4.70
2022-11-25T02:17:48.585Z,4.73
2022-11-25T02:22:58.330Z,4.75
2022-11-25T02:28:06.971Z,4.73
2022-11-25T02:33:10.350Z,4.70
2022-11-25T02:38:17.340Z,4.73
2022-11-25T02:43:22.543Z,4.73
2022-11-25T02:48:45.864Z,4.74
2022-11-25T02:53:49.877Z,4.73
2022-11-25T02:58:54.491Z,4.73
2022-11-25T03:03:57.356Z,4.79
2022-11-25T03:09:00.412Z,4.85
2022-11-25T03:14:04.526Z,4.88
2022-11-25T03:19:08.474Z,4.90
2022-11-25T03:24:11.205Z,4.89
2022-11-25T03:29:15.286Z,4.91
2022-11-25T03:34:18.048Z,4.90
2022-11-25T03:39:20.796Z,4.86
2022-11-25T03:44:24.880Z,4.80
2022-11-25T03:49:27.621Z,4.76
2022-11-25T03:54:30.596Z,4.74
2022-11-25T03:59:34.704Z,4.78
2022-11-25T04:04:37.748Z,4.78
2022-11-25T04:09:40.673Z,4.82
2022-11-25T04:14:44.836Z,4.81
2022-11-25T04:19:47.585Z,4.77
2022-11-25T04:24:50.582Z,4.76
2022-11-25T04:29:54.677Z,4.70
2022-11-25T04:34:57.404Z,4.70
2022-11-25T04:40:00.189Z,4.67
2022-11-25T04:45:22.399Z,4.63
2022-11-25T04:50:26.175Z,4.59
2022-11-25T04:55:29.104Z,4.53
2022-11-25T05:00:33.263Z,4.53
2022-11-25T05:05:36.001Z,4.50
2022-11-25T05:10:38.737Z,4.48
2022-11-25T05:15:44.234Z,4.44
2022-11-25T05:20:47.028Z,4.09
2022-11-25T05:25:49.747Z,3.84
2022-11-25T05:30:53.899Z,3.78
2022-11-25T05:35:58.478Z,3.62
2022-11-25T05:41:03.284Z,3.51
2022-11-25T05:46:08.885Z,3.44
2022-11-25T05:51:11.732Z,3.31
2022-11-25T05:56:14.484Z,3.18
2022-11-25T06:01:18.724Z,3.10
2022-11-25T06:06:22.075Z,3.07
2022-11-25T06:11:25.537Z,3.07
2022-11-25T06:16:29.704Z,3.15
2022-11-25T06:21:32.528Z,3.30
2022-11-25T06:26:35.281Z,3.25
2022-11-25T06:31:39.655Z,3.27
2022-11-25T06:36:42.510Z,3.24
2022-11-25T06:41:45.444Z,3.22
2022-11-25T06:46:49.578Z,3.17
2022-11-25T06:51:52.360Z,3.26
2022-11-25T06:56:55.109Z,3.30
2022-11-25T07:01:59.319Z,3.32
2022-11-25T07:07:02.118Z,3.29
2022-11-25T07:12:05.789Z,3.23
2022-11-25T07:17:12.258Z,3.22
2022-11-25T07:22:15.208Z,3.23
2022-11-25T07:27:17.955Z,3.27
2022-11-25T07:32:22.644Z,3.34
2022-11-25T07:37:25.433Z,3.43
2022-11-25T07:42:28.168Z,3.34
2022-11-25T07:47:34.871Z,3.32
2022-11-25T07:52:40.068Z,3.34
2022-11-25T07:57:42.829Z,3.35
2022-11-25T08:02:46.961Z,3.37
2022-11-25T08:07:49.807Z,3.44
2022-11-25T08:12:52.542Z,3.55
2022-11-25T08:17:56.642Z,3.68
2022-11-25T08:22:59.365Z,3.80
2022-11-25T08:28:02.230Z,3.81
2022-11-25T08:33:07.410Z,3.74
2022-11-25T08:38:12.364Z,3.62
2022-11-25T08:43:15.244Z,3.56
2022-11-25T08:48:21.498Z,3.57
2022-11-25T08:53:24.235Z,3.62
2022-11-25T08:58:27.058Z,3.72
2022-11-25T09:03:33.453Z,3.87
2022-11-25T09:08:37.598Z,4.00
2022-11-25T09:13:40.723Z,4.11
2022-11-25T09:18:48.903Z,4.20
2022-11-25T09:23:55.928Z,4.22
2022-11-25T09:28:59.294Z,4.29
2022-11-25T09:34:03.397Z,4.37
2022-11-25T09:39:06.278Z,4.48
2022-11-25T09:44:38.841Z,4.59
2022-11-25T09:50:01.101Z,4.69
2022-11-25T09:55:07.779Z,4.83
2022-11-25T10:00:14.549Z,4.94
2022-11-25T10:05:24.574Z,4.99
2022-11-25T10:10:30.924Z,5.02
2022-11-25T10:15:40.714Z,5.09
2022-11-25T10:20:48.403Z,5.12
2022-11-25T10:25:56.721Z,5.04
2022-11-25T10:31:05.592Z,5.00
2022-11-25T10:36:16.569Z,4.97
2022-11-25T10:41:24.363Z,5.09
2022-11-25T10:47:11.217Z,5.17
2022-11-25T10:52:01.119Z,5.18
2022-11-25T10:57:05.802Z,5.11
2022-11-25T11:02:19.146Z,5.09
2022-11-25T11:07:24.225Z,5.18
2022-11-25T11:12:28.480Z,5.26
2022-11-25T11:17:36.793Z,5.41
2022-11-25T11:22:55.787Z,5.50
2022-11-25T11:27:59.768Z,5.67
2022-11-25T11:33:05.657Z,6.05
2022-11-25T11:38:30.241Z,6.79
2022-11-25T11:43:47.603Z,7.24
2022-11-25T11:49:02.911Z,7.43
2022-11-25T11:54:12.390Z,7.10
2022-11-25T11:59:49.848Z,7.44
2022-11-25T12:05:01.408Z,7.80
2022-11-25T12:10:16.546Z,7.90
2022-11-25T12:15:25.694Z,8.10
2022-11-25T12:20:37.350Z,8.36
2022-11-25T12:25:43.508Z,8.62
2022-11-25T12:31:01.862Z,8.62
2022-11-25T12:36:13.292Z,8.67
2022-11-25T12:41:26.323Z,8.53
2022-11-25T12:46:36.896Z,8.49
2022-11-25T12:52:12.206Z,8.51
2022-11-25T12:57:48.609Z,8.35
2022-11-25T13:03:28.915Z,8.71
2022-11-25T13:08:52.828Z,8.52
2022-11-25T13:14:04.226Z,8.29
2022-11-25T13:19:11.762Z,8.20
2022-11-25T13:24:29.771Z,8.18
2022-11-25T13:30:05.138Z,8.25
2022-11-25T13:35:32.929Z,8.42
2022-11-25T13:40:39.176Z,8.36
2022-11-25T13:45:45.957Z,8.54
2022-11-25T13:56:16.555Z,9.06
2022-11-25T14:01:30.367Z,8.96
2022-11-25T14:07:05.254Z,9.17
2022-11-25T14:12:32.154Z,9.28
2022-11-25T14:18:15.959Z,9.24
2022-11-25T14:23:45.975Z,9.31
2022-11-25T14:28:57.527Z,9.23
2022-11-25T14:34:08.303Z,9.20
2022-11-25T14:39:19.070Z,9.11
2022-11-25T14:44:25.811Z,8.97
2022-11-25T14:50:00.052Z,8.87
2022-11-25T14:55:09.916Z,8.70
2022-11-25T15:00:15.474Z,8.72
2022-11-25T15:05:22.645Z,8.69
2022-11-25T15:10:39.215Z,8.61
2022-11-25T15:15:46.250Z,8.55
2022-11-25T15:20:56.917Z,8.46
2022-11-25T15:26:01.100Z,8.42
2022-11-25T15:31:10.915Z,8.37
2022-11-25T15:36:15.157Z,8.36
2022-11-25T15:41:27.222Z,8.27
2022-11-25T15:46:31.136Z,8.21
2022-11-25T15:51:42.704Z,8.18
2022-11-25T15:56:48.984Z,8.15
2022-11-25T16:01:51.909Z,8.11
2022-11-25T16:06:59.448Z,8.08
2022-11-25T16:12:10.215Z,8.06
2022-11-25T16:17:13.621Z,8.01
2022-11-25T16:22:20.138Z,8.02
2022-11-25T16:27:24.910Z,7.96
2022-11-25T16:32:30.096Z,7.91
2022-11-25T16:37:34.267Z,7.87
2022-11-25T16:42:37.069Z,7.83
2022-11-25T16:47:39.845Z,7.77
2022-11-25T16:52:44.323Z,7.74
2022-11-25T16:57:47.582Z,7.74
2022-11-25T17:02:50.396Z,7.68
2022-11-25T17:07:55.481Z,7.60
2022-11-25T17:12:58.392Z,7.59
2022-11-25T17:18:02.067Z,7.58
2022-11-25T17:23:11.741Z,7.55
2022-11-25T17:28:16.887Z,7.53
2022-11-25T17:33:21.338Z,7.52
2022-11-25T17:38:25.500Z,7.51
2022-11-25T17:43:34.361Z,7.49
2022-11-25T17:48:38.021Z,7.45
2022-11-25T17:53:42.808Z,7.45
2022-11-25T17:58:45.765Z,7.45
2022-11-25T18:03:49.469Z,7.41
2022-11-25T18:08:53.539Z,7.36
2022-11-25T18:13:56.527Z,7.37
2022-11-25T18:18:59.283Z,7.33
2022-11-25T18:24:03.521Z,7.31
2022-11-25T18:29:08.011Z,7.28
2022-11-25T18:34:14.708Z,7.28
2022-11-25T18:39:18.880Z,7.29
2022-11-25T18:44:26.277Z,7.28
2022-11-25T18:49:29.298Z,7.25
2022-11-25T18:54:33.448Z,7.25
2022-11-25T18:59:37.766Z,7.24
2022-11-25T19:04:40.521Z,7.23
2022-11-25T19:09:44.847Z,7.21
2022-11-25T19:14:50.168Z,7.21
2022-11-25T19:19:52.941Z,7.20
2022-11-25T19:24:59.029Z,7.21
2022-11-25T19:30:03.098Z,7.22
2022-11-25T19:35:09.176Z,7.22
2022-11-25T19:40:17.075Z,7.21
2022-11-25T19:45:21.587Z,7.19
2022-11-25T19:50:27.025Z,7.17
2022-11-25T19:55:32.339Z,7.15
2022-11-25T20:00:35.655Z,7.13
2022-11-25T20:05:39.559Z,7.10
2022-11-25T20:10:43.853Z,7.05
2022-11-25T20:15:47.567Z,6.97
2022-11-25T20:20:56.036Z,6.90
2022-11-25T20:26:00.138Z,6.87
2022-11-25T20:31:02.922Z,6.91
2022-11-25T20:36:08.421Z,6.86
2022-11-25T20:41:13.315Z,6.78
2022-11-25T20:46:19.686Z,6.74
2022-11-25T20:51:24.421Z,6.63
2022-11-25T20:56:29.034Z,6.59
2022-11-25T21:01:31.813Z,6.51
2022-11-25T21:06:40.766Z,6.44
2022-11-25T21:11:45.450Z,6.37
2022-11-25T21:16:48.540Z,6.46
2022-11-25T21:21:51.936Z,6.55
2022-11-25T21:26:56.374Z,6.67
2022-11-25T21:31:59.237Z,6.74
2022-11-25T21:37:03.810Z,6.78
2022-11-25T21:42:16.849Z,6.81
2022-11-25T21:47:22.801Z,6.83
2022-11-25T21:52:25.565Z,6.84
2022-11-25T21:57:30.170Z,6.87
2022-11-25T22:02:33.320Z,6.90
2022-11-25T22:07:36.166Z,6.87
2022-11-25T22:12:42.922Z,6.85
2022-11-25T22:17:46.085Z,6.87
2022-11-25T22:22:48.870Z,6.89
2022-11-25T22:27:53.259Z,6.92
2022-11-25T22:33:01.513Z,6.95
2022-11-25T22:38:07.148Z,6.91
2022-11-25T22:43:17.753Z,6.93
2022-11-25T22:48:24.283Z,6.93
2022-11-25T22:53:27.123Z,6.93
2022-11-25T22:58:31.220Z,6.93
2022-11-25T23:03:34.220Z,6.90
2022-11-25T23:08:37.546Z,6.85
2022-11-25T23:13:41.655Z,6.84
2022-11-25T23:18:46.682Z,6.87
2022-11-25T23:23:50.141Z,6.87
2022-11-25T23:28:54.246Z,6.89
2022-11-25T23:33:57.175Z,6.89
2022-11-25T23:39:02.316Z,6.86
2022-11-25T23:44:15.741Z,6.88
2022-11-25T23:49:23.984Z,6.91
2022-11-25T23:54:31.669Z,6.88
2022-11-25T23:59:35.751Z,6.90
